Time;durP1;ratioP1;P1;durP2;ratioP2;P2;SDS_P1;SDS_P2;PMS_P1;PMS_P2;Temp;Humidity;BMP_temperature;BMP_pressure;BME280_temperature;BME280_humidity;BME280_pressure;Samples;Min_cycle;Max_cycle;Signal;HPM_P1;HPM_P2
2021/09/28 00:00:55;;;;;;;10.10;9.10;;;16.50;99.90;;;;;;6254595;28;20219;-73
2021/09/28 00:03:57;;;;;;;9.60;8.77;;;16.50;99.90;;;;;;6246839;28;20191;-73
2021/09/28 00:07:00;;;;;;;8.90;8.10;;;16.50;99.90;;;;;;6245305;28;20196;-74
2021/09/28 00:10:03;;;;;;;9.47;8.43;;;16.50;99.90;;;;;;6229075;28;20242;-74
2021/09/28 00:13:06;;;;;;;9.60;8.70;;;16.50;99.90;;;;;;6229317;28;20192;-73
2021/09/28 00:16:08;;;;;;;10.10;7.97;;;16.50;99.90;;;;;;6220553;28;20213;-73
2021/09/28 00:19:11;;;;;;;9.87;8.87;;;16.40;99.90;;;;;;6241731;28;20687;-74
2021/09/28 00:22:13;;;;;;;9.43;8.47;;;16.40;99.90;;;;;;6245227;28;20198;-73
2021/09/28 00:25:15;;;;;;;9.77;8.70;;;16.40;99.90;;;;;;6246479;28;20188;-74
2021/09/28 00:28:18;;;;;;;15.03;9.10;;;16.40;99.90;;;;;;6246411;28;20558;-75
2021/09/28 00:31:21;;;;;;;9.70;8.80;;;16.30;99.90;;;;;;6260596;28;20199;-73
2021/09/28 00:34:23;;;;;;;10.57;9.37;;;16.30;99.90;;;;;;6228522;28;20203;-74
2021/09/28 00:37:25;;;;;;;11.67;9.13;;;16.20;99.90;;;;;;6246067;28;20718;-73
2021/09/28 00:40:30;;;;;;;11.40;10.17;;;16.20;99.90;;;;;;6245154;28;20180;-73
2021/09/28 00:43:53;;;;;;;11.70;10.33;;;16.20;99.90;;;;;;6245992;28;20201;-73
2021/09/28 00:46:55;;;;;;;16.30;12.03;;;16.20;99.90;;;;;;6228250;28;20214;-73
2021/09/28 00:49:58;;;;;;;11.93;10.50;;;16.30;99.90;;;;;;6236762;28;20201;-73
2021/09/28 00:53:01;;;;;;;12.83;10.27;;;16.40;99.90;;;;;;6236115;28;20644;-73
2021/09/28 00:56:03;;;;;;;10.50;9.50;;;16.40;99.90;;;;;;6227703;28;20238;-73
2021/09/28 00:59:06;;;;;;;11.03;8.83;;;16.40;99.90;;;;;;6244303;28;20207;-73
2021/09/28 01:02:10;;;;;;;9.87;8.90;;;16.40;99.90;;;;;;6245706;28;20219;-73
2021/09/28 01:05:12;;;;;;;10.83;9.67;;;16.50;99.90;;;;;;6244448;28;20345;-73
2021/09/28 01:08:15;;;;;;;11.13;9.47;;;16.50;99.90;;;;;;6246029;28;20189;-73
2021/09/28 01:11:18;;;;;;;11.70;9.80;;;16.50;99.90;;;;;;6244568;28;20196;-73
2021/09/28 01:14:21;;;;;;;9.20;8.20;;;16.50;99.90;;;;;;6228305;28;20211;-73
2021/09/28 01:17:23;;;;;;;10.13;9.13;;;16.60;99.90;;;;;;6245940;28;20242;-73
2021/09/28 01:20:25;;;;;;;9.87;8.97;;;16.60;99.90;;;;;;6244233;28;20249;-73
2021/09/28 01:23:28;;;;;;;9.73;7.93;;;16.60;99.90;;;;;;6244291;28;20188;-73
2021/09/28 01:26:30;;;;;;;9.93;9.03;;;16.50;99.90;;;;;;6244497;28;20202;-74
2021/09/28 01:29:32;;;;;;;11.63;10.43;;;16.50;99.90;;;;;;6245276;28;20195;-73
2021/09/28 01:32:34;;;;;;;13.53;10.60;;;16.50;99.90;;;;;;6227971;28;20200;-74
2021/09/28 01:35:39;;;;;;;11.83;10.63;;;16.50;99.90;;;;;;6245232;28;20208;-74
2021/09/28 01:38:42;;;;;;;11.20;10.10;;;16.60;99.90;;;;;;6245346;28;20200;-74
2021/09/28 01:41:44;;;;;;;11.60;10.50;;;16.70;99.90;;;;;;6245258;28;20193;-74
2021/09/28 01:44:47;;;;;;;11.60;10.23;;;16.80;99.90;;;;;;6243824;28;20200;-73
2021/09/28 01:47:49;;;;;;;11.67;10.07;;;16.80;99.90;;;;;;6245365;28;20200;-74
2021/09/28 01:50:52;;;;;;;10.20;9.23;;;16.80;99.90;;;;;;6244904;28;20204;-74
2021/09/28 01:53:54;;;;;;;10.80;9.17;;;16.80;99.90;;;;;;6245228;28;20200;-73
2021/09/28 01:56:56;;;;;;;9.93;8.93;;;16.90;99.90;;;;;;6243926;28;20223;-74
2021/09/28 01:59:58;;;;;;;11.53;8.90;;;16.80;99.90;;;;;;6244835;28;20216;-75
2021/09/28 02:03:01;;;;;;;10.33;9.20;;;16.80;99.90;;;;;;6230285;28;20228;-74
2021/09/28 02:06:04;;;;;;;9.77;8.50;;;16.70;99.90;;;;;;6247274;28;20207;-73
2021/09/28 02:09:08;;;;;;;9.53;8.63;;;16.60;99.90;;;;;;6249546;28;20199;-74
2021/09/28 02:12:10;;;;;;;8.60;7.77;;;16.50;99.90;;;;;;6249423;28;20196;-73
2021/09/28 02:15:13;;;;;;;9.27;8.37;;;16.40;99.90;;;;;;6249163;28;20358;-73
2021/09/28 02:18:15;;;;;;;10.60;9.40;;;16.30;99.90;;;;;;6231814;28;20424;-75
2021/09/28 02:21:17;;;;;;;12.07;10.97;;;16.20;99.90;;;;;;6249166;28;20184;-73
2021/09/28 02:24:21;;;;;;;11.37;9.90;;;16.10;99.90;;;;;;6249844;28;20192;-74
2021/09/28 02:27:23;;;;;;;11.03;9.93;;;16.00;99.90;;;;;;6249697;28;20192;-73
2021/09/28 02:30:25;;;;;;;13.70;11.03;;;16.10;99.90;;;;;;6247673;28;20625;-73
2021/09/28 02:33:28;;;;;;;11.57;10.13;;;16.20;99.90;;;;;;6231168;28;20258;-73
2021/09/28 02:36:30;;;;;;;9.93;8.83;;;16.30;99.90;;;;;;6248687;28;20202;-73
2021/09/28 02:39:32;;;;;;;11.87;10.37;;;16.30;99.90;;;;;;6231444;28;20184;-73
2021/09/28 02:42:35;;;;;;;9.87;8.90;;;16.30;99.90;;;;;;6248666;28;20198;-73
2021/09/28 02:45:38;;;;;;;11.27;10.07;;;16.20;99.90;;;;;;6247847;28;20659;-74
2021/09/28 02:48:40;;;;;;;10.73;9.73;;;16.20;99.90;;;;;;6248855;28;20964;-73
2021/09/28 02:51:42;;;;;;;11.10;9.20;;;16.10;99.90;;;;;;6229916;28;20274;-73
2021/09/28 02:54:44;;;;;;;10.77;8.57;;;16.10;99.90;;;;;;6231314;28;20298;-73
2021/09/28 02:57:46;;;;;;;9.07;8.17;;;16.10;99.90;;;;;;6248271;28;20257;-74
2021/09/28 03:00:49;;;;;;;11.77;8.77;;;16.10;99.90;;;;;;6251499;28;20246;-73
2021/09/28 03:03:51;;;;;;;10.33;9.23;;;16.00;99.90;;;;;;6248257;28;20563;-74
2021/09/28 03:06:53;;;;;;;10.10;9.10;;;16.00;99.90;;;;;;6248404;28;20411;-73
2021/09/28 03:09:55;;;;;;;9.03;8.20;;;15.90;99.90;;;;;;6230265;28;20196;-74
2021/09/28 03:12:58;;;;;;;8.67;7.87;;;15.80;99.90;;;;;;6248365;28;20184;-73
2021/09/28 03:16:00;;;;;;;9.53;8.63;;;15.80;99.90;;;;;;6221877;28;20583;-74
2021/09/28 03:19:03;;;;;;;10.07;9.03;;;15.80;99.90;;;;;;6219133;28;20266;-75
2021/09/28 03:22:05;;;;;;;10.77;9.53;;;15.80;99.90;;;;;;6242188;28;20188;-74
2021/09/28 03:25:08;;;;;;;12.67;10.33;;;15.80;99.90;;;;;;6247876;28;20196;-73
2021/09/28 03:28:10;;;;;;;10.27;9.13;;;15.80;99.90;;;;;;6247642;28;20192;-73
2021/09/28 03:31:12;;;;;;;11.43;9.67;;;15.90;99.90;;;;;;6259916;28;20196;-73
2021/09/28 03:34:14;;;;;;;11.27;9.83;;;16.00;99.90;;;;;;6247422;28;20608;-75
2021/09/28 03:37:16;;;;;;;9.77;8.50;;;16.10;99.90;;;;;;6247529;28;20215;-74
2021/09/28 03:40:20;;;;;;;10.00;9.00;;;16.30;99.90;;;;;;6247603;28;20191;-73
2021/09/28 03:43:22;;;;;;;11.23;9.43;;;16.30;99.90;;;;;;6229675;28;20192;-75
2021/09/28 03:46:25;;;;;;;9.67;8.30;;;16.40;99.90;;;;;;6229874;28;20192;-73
2021/09/28 03:49:27;;;;;;;8.37;7.57;;;16.40;99.90;;;;;;6247115;28;20192;-74
2021/09/28 03:52:29;;;;;;;7.93;7.13;;;16.50;99.90;;;;;;6247113;28;20196;-73
2021/09/28 03:55:32;;;;;;;10.37;8.07;;;16.50;99.90;;;;;;6221284;28;20209;-74
2021/09/28 03:58:35;;;;;;;8.87;7.53;;;16.50;99.90;;;;;;6240864;28;20226;-73
2021/09/28 04:01:37;;;;;;;9.17;8.20;;;16.50;99.90;;;;;;6245479;28;20623;-74
2021/09/28 04:04:39;;;;;;;8.70;7.80;;;16.50;99.90;;;;;;6229154;28;20188;-74
2021/09/28 04:07:42;;;;;;;9.50;8.43;;;16.50;99.90;;;;;;6246734;28;20187;-73
2021/09/28 04:10:44;;;;;;;9.00;8.10;;;16.50;99.90;;;;;;6229221;28;20196;-73
2021/09/28 04:13:48;;;;;;;14.00;8.77;;;16.50;99.90;;;;;;6245428;28;20219;-74
2021/09/28 04:16:50;;;;;;;10.60;9.50;;;16.50;99.90;;;;;;6245099;28;20206;-73
2021/09/28 04:19:53;;;;;;;9.23;7.73;;;16.50;99.90;;;;;;6246330;28;20187;-74
2021/09/28 04:22:55;;;;;;;7.93;7.23;;;16.50;99.90;;;;;;6228693;28;20667;-74
2021/09/28 04:25:57;;;;;;;9.73;7.87;;;16.50;99.90;;;;;;6246229;28;20199;-74
2021/09/28 04:29:00;;;;;;;9.90;8.33;;;16.50;99.90;;;;;;6246254;28;20214;-73
2021/09/28 04:32:02;;;;;;;9.57;8.07;;;16.50;99.90;;;;;;6245068;28;20210;-73
2021/09/28 04:35:05;;;;;;;9.23;8.17;;;16.60;99.90;;;;;;6244725;28;20318;-73
2021/09/28 04:38:08;;;;;;;9.87;8.73;;;16.60;99.90;;;;;;6220691;28;20205;-73
2021/09/28 04:41:10;;;;;;;10.87;8.47;;;16.60;99.90;;;;;;6228411;28;20180;-73
2021/09/28 04:44:12;;;;;;;9.07;8.17;;;16.60;99.90;;;;;;6246427;28;20190;-74
2021/09/28 04:47:14;;;;;;;8.17;7.40;;;16.70;99.90;;;;;;6244974;28;20277;-73
2021/09/28 04:50:17;;;;;;;8.40;7.53;;;16.60;99.90;;;;;;6244750;28;20190;-74
2021/09/28 04:53:20;;;;;;;8.33;7.27;;;16.70;99.90;;;;;;6245997;28;20644;-74
2021/09/28 04:56:23;;;;;;;8.50;7.43;;;16.70;99.90;;;;;;6227987;28;20211;-74
2021/09/28 04:59:25;;;;;;;8.53;7.73;;;16.70;99.90;;;;;;6244651;28;20216;-74
2021/09/28 05:02:28;;;;;;;8.20;7.40;;;16.70;99.90;;;;;;6222418;28;20236;-73
2021/09/28 05:05:31;;;;;;;8.77;7.87;;;16.70;99.90;;;;;;6240004;28;20270;-74
2021/09/28 05:08:33;;;;;;;8.83;7.93;;;16.70;99.90;;;;;;6220170;28;20208;-73
2021/09/28 05:11:35;;;;;;;10.00;8.20;;;16.70;99.90;;;;;;6232185;28;20605;-74
2021/09/28 05:14:37;;;;;;;12.87;8.60;;;16.70;99.90;;;;;;6245644;28;20195;-74
2021/09/28 05:17:39;;;;;;;11.43;8.80;;;16.70;99.90;;;;;;6211840;28;20215;-74
2021/09/28 05:20:42;;;;;;;8.57;7.77;;;16.70;99.90;;;;;;6244503;28;20265;-74
2021/09/28 05:23:47;;;;;;;8.97;8.07;;;16.60;99.90;;;;;;6246006;28;20648;-74
2021/09/28 05:26:50;;;;;;;10.67;9.00;;;16.70;99.90;;;;;;6244238;28;20554;-74
2021/09/28 05:29:52;;;;;;;9.23;8.33;;;16.70;99.90;;;;;;6244138;28;20199;-74
2021/09/28 05:32:54;;;;;;;9.10;7.87;;;16.70;99.90;;;;;;6243615;28;20382;-73
2021/09/28 05:35:57;;;;;;;10.40;8.43;;;16.70;99.90;;;;;;6227499;28;20354;-74
2021/09/28 05:39:00;;;;;;;11.07;9.30;;;16.70;99.90;;;;;;6243760;28;20184;-74
2021/09/28 05:42:03;;;;;;;9.37;8.47;;;16.80;99.90;;;;;;6248657;28;20262;-73
2021/09/28 05:45:06;;;;;;;9.67;8.10;;;16.80;99.90;;;;;;6248610;28;20557;-73
2021/09/28 05:48:08;;;;;;;9.73;8.70;;;16.80;99.90;;;;;;6248398;28;20188;-74
2021/09/28 05:51:18;;;;;;;9.23;8.23;;;16.80;99.90;;;;;;6248770;28;20211;-74
2021/09/28 05:54:22;;;;;;;10.03;8.97;;;16.80;99.90;;;;;;6231587;28;20200;-73
2021/09/28 05:57:24;;;;;;;10.17;8.00;;;16.90;99.90;;;;;;6248382;28;20223;-73
2021/09/28 06:00:26;;;;;;;9.10;8.27;;;16.90;99.90;;;;;;6247990;28;20223;-73
2021/09/28 06:03:28;;;;;;;8.80;7.90;;;16.90;99.90;;;;;;6248931;28;20302;-73
2021/09/28 06:06:32;;;;;;;9.00;8.10;;;16.90;99.90;;;;;;6231643;28;20644;-73
2021/09/28 06:09:36;;;;;;;9.47;8.47;;;16.90;99.90;;;;;;6248921;28;20256;-73
2021/09/28 06:12:38;;;;;;;10.83;8.40;;;16.90;99.90;;;;;;6231352;28;20203;-73
2021/09/28 06:15:40;;;;;;;7.80;7.10;;;17.00;99.90;;;;;;6247562;28;20216;-74
2021/09/28 06:18:43;;;;;;;8.27;7.47;;;17.00;99.90;;;;;;6247788;28;20190;-73
2021/09/28 06:21:45;;;;;;;8.27;7.50;;;17.00;99.90;;;;;;6248866;28;20223;-74
2021/09/28 06:24:47;;;;;;;8.13;7.33;;;17.10;99.90;;;;;;6247479;28;20202;-74
2021/09/28 06:27:50;;;;;;;7.97;7.20;;;17.10;99.90;;;;;;6247882;28;20223;-73
2021/09/28 06:30:52;;;;;;;8.90;8.00;;;17.20;99.90;;;;;;6230777;28;20228;-73
2021/09/28 06:33:54;;;;;;;11.77;7.87;;;17.20;99.90;;;;;;6232753;28;20206;-73
2021/09/28 06:36:56;;;;;;;9.20;7.10;;;17.30;99.90;;;;;;6247299;28;20230;-74
2021/09/28 06:39:59;;;;;;;8.60;7.17;;;17.40;99.90;;;;;;6247266;28;20567;-73
2021/09/28 06:43:01;;;;;;;7.33;6.63;;;17.40;99.90;;;;;;6248329;28;20186;-74
2021/09/28 06:46:05;;;;;;;7.33;6.60;;;17.40;99.90;;;;;;6230592;28;20203;-73
2021/09/28 06:49:09;;;;;;;7.07;6.37;;;17.50;99.90;;;;;;6248201;28;20196;-74
2021/09/28 06:52:12;;;;;;;6.77;6.07;;;17.50;99.90;;;;;;6246781;28;20561;-74
2021/09/28 06:55:14;;;;;;;6.90;5.93;;;17.60;99.90;;;;;;6222273;28;20201;-74
2021/09/28 06:58:17;;;;;;;7.27;6.50;;;17.60;99.90;;;;;;6230306;28;20669;-74
2021/09/28 07:01:19;;;;;;;6.57;5.90;;;17.60;99.90;;;;;;6245234;28;20242;-74
2021/09/28 07:04:22;;;;;;;8.07;6.63;;;17.60;99.90;;;;;;6246744;28;20188;-74
2021/09/28 07:07:25;;;;;;;7.50;6.83;;;17.60;99.90;;;;;;6247910;28;20188;-74
2021/09/28 07:10:27;;;;;;;7.60;6.90;;;17.60;99.90;;;;;;6246663;28;20259;-74
2021/09/28 07:13:30;;;;;;;7.77;6.97;;;17.60;99.90;;;;;;6246483;28;20208;-74
2021/09/28 07:16:32;;;;;;;7.23;6.60;;;17.60;99.90;;;;;;6247262;28;20523;-74
2021/09/28 07:19:34;;;;;;;6.90;6.20;;;17.70;99.90;;;;;;6213817;28;20210;-74
2021/09/28 07:22:36;;;;;;;7.20;5.90;;;17.80;99.90;;;;;;6221676;28;20197;-74
2021/09/28 07:25:39;;;;;;;6.40;5.80;;;17.80;99.90;;;;;;6231144;28;20196;-74
2021/09/28 07:28:42;;;;;;;7.13;5.90;;;17.90;99.90;;;;;;6247369;28;20207;-73
2021/09/28 07:31:45;;;;;;;8.17;7.37;;;17.90;99.90;;;;;;6245995;28;20200;-74
2021/09/28 07:34:47;;;;;;;7.03;6.33;;;17.90;99.90;;;;;;6229910;28;20206;-74
2021/09/28 07:37:50;;;;;;;6.23;5.63;;;18.00;99.90;;;;;;6229673;28;20212;-74
2021/09/28 07:40:52;;;;;;;6.47;5.87;;;18.00;99.90;;;;;;6246371;28;20582;-77
2021/09/28 07:43:55;;;;;;;7.63;6.83;;;18.00;99.90;;;;;;6222496;28;20674;-74
2021/09/28 07:47:01;;;;;;;7.87;6.33;;;18.00;99.90;;;;;;6246786;28;20647;-75
2021/09/28 07:50:04;;;;;;;6.97;6.27;;;18.00;99.90;;;;;;6246922;28;20565;-74
2021/09/28 07:53:07;;;;;;;7.43;6.57;;;18.00;99.90;;;;;;6246754;28;20663;-74
2021/09/28 07:56:09;;;;;;;7.80;6.93;;;18.00;99.90;;;;;;6228671;28;20208;-74
2021/09/28 07:59:11;;;;;;;7.40;6.70;;;18.00;99.90;;;;;;6246736;28;20188;-75
2021/09/28 08:02:14;;;;;;;7.57;6.63;;;18.00;99.90;;;;;;6246371;28;20222;-73
2021/09/28 08:05:16;;;;;;;7.77;6.97;;;18.00;99.90;;;;;;6245037;28;20199;-73
2021/09/28 08:08:18;;;;;;;6.27;5.67;;;18.00;99.90;;;;;;6246167;28;20192;-75
2021/09/28 08:11:21;;;;;;;7.77;6.03;;;18.00;99.90;;;;;;6244947;28;20681;-74
2021/09/28 08:14:23;;;;;;;7.93;6.67;;;18.00;99.90;;;;;;6228318;28;20570;-74
2021/09/28 08:17:25;;;;;;;9.07;6.27;;;18.10;99.90;;;;;;6228329;28;20298;-75
2021/09/28 08:20:28;;;;;;;8.90;6.00;;;18.20;99.90;;;;;;6228112;28;20196;-74
2021/09/28 08:23:30;;;;;;;9.57;5.90;;;18.30;99.90;;;;;;6245252;28;20188;-74
2021/09/28 08:29:36;;;;;;;7.37;6.17;;;18.80;99.90;;;;;;6245833;28;20199;-73
2021/09/28 08:32:39;;;;;;;7.87;6.50;;;19.00;99.90;;;;;;6245203;28;20222;-74
2021/09/28 08:35:41;;;;;;;8.10;6.13;;;19.30;99.90;;;;;;6227885;28;20196;-74
2021/09/28 08:38:43;;;;;;;6.97;6.23;;;19.70;99.90;;;;;;6245219;28;20710;-74
2021/09/28 08:41:47;;;;;;;9.33;7.00;;;20.10;99.90;;;;;;6227336;28;20192;-74
2021/09/28 08:44:52;;;;;;;8.37;6.87;;;20.40;99.90;;;;;;6245295;28;20191;-75
2021/09/28 08:47:54;;;;;;;6.63;5.97;;;20.70;99.90;;;;;;6244235;28;20198;-74
2021/09/28 08:50:56;;;;;;;7.20;6.33;;;20.90;99.90;;;;;;6245332;28;20192;-75
2021/09/28 08:53:59;;;;;;;6.50;5.90;;;21.20;99.90;;;;;;6220954;28;20254;-74
2021/09/28 08:57:02;;;;;;;7.83;5.90;;;21.40;99.90;;;;;;6227593;28;20597;-75
2021/09/28 09:00:25;;;;;;;7.00;5.40;;;21.60;99.90;;;;;;6245389;28;20222;-74
2021/09/28 09:03:35;;;;;;;6.30;5.70;;;21.70;99.90;;;;;;6245170;28;20228;-74
2021/09/28 09:06:38;;;;;;;6.10;5.47;;;21.90;99.90;;;;;;6243849;28;20192;-75
2021/09/28 09:09:47;;;;;;;5.30;4.80;;;22.10;99.90;;;;;;6245085;28;20194;-75
2021/09/28 09:12:50;;;;;;;6.13;5.20;;;22.30;99.90;;;;;;6245259;28;20192;-74
2021/09/28 09:15:56;;;;;;;9.73;6.17;;;22.50;99.90;;;;;;6245818;28;20770;-75
2021/09/28 09:19:30;;;;;;;6.23;5.63;;;22.60;99.90;;;;;;6249622;28;20192;-75
2021/09/28 09:22:33;;;;;;;5.57;5.07;;;22.70;99.90;;;;;;6249954;28;20188;-75
2021/09/28 09:25:35;;;;;;;6.30;5.63;;;22.80;99.90;;;;;;6248891;28;20256;-74
2021/09/28 09:28:48;;;;;;;7.40;6.40;;;22.90;99.50;;;;;;6250141;28;20782;-74
2021/09/28 09:31:54;;;;;;;7.30;5.90;;;23.00;98.80;;;;;;6232351;28;20195;-74
2021/09/28 09:34:56;;;;;;;5.87;5.37;;;23.10;98.90;;;;;;6232491;28;20253;-74
2021/09/28 09:38:12;;;;;;;8.40;5.80;;;23.40;98.80;;;;;;6232269;28;20214;-75
2021/09/28 09:41:16;;;;;;;5.67;5.17;;;23.60;98.40;;;;;;6232163;28;20266;-75
2021/09/28 09:44:18;;;;;;;7.43;6.37;;;23.70;98.00;;;;;;6248212;28;20571;-75
2021/09/28 09:47:26;;;;;;;7.80;6.57;;;23.80;97.40;;;;;;6248302;28;20652;-75
2021/09/28 09:50:30;;;;;;;7.20;6.60;;;23.80;98.20;;;;;;6249964;28;20184;-74
2021/09/28 09:53:34;;;;;;;7.97;7.17;;;24.00;97.60;;;;;;6249296;28;20275;-75
2021/09/28 09:56:48;;;;;;;7.93;7.13;;;24.20;96.90;;;;;;6247910;28;20287;-74
2021/09/28 09:59:51;;;;;;;7.60;6.80;;;24.30;96.40;;;;;;6234910;28;20216;-75
2021/09/28 10:02:53;;;;;;;7.57;6.87;;;24.30;95.80;;;;;;6247808;28;20293;-75
2021/09/28 10:05:55;;;;;;;7.73;5.90;;;24.40;95.70;;;;;;6247489;28;20204;-74
2021/09/28 10:08:59;;;;;;;6.37;5.77;;;24.60;95.30;;;;;;6249201;28;20191;-76
2021/09/28 10:12:07;;;;;;;6.97;6.27;;;24.70;95.40;;;;;;6249051;28;20275;-75
2021/09/28 10:15:15;;;;;;;5.70;5.10;;;24.90;95.30;;;;;;6247619;28;20205;-75
2021/09/28 10:18:37;;;;;;;6.37;5.20;;;25.00;95.20;;;;;;6248720;28;20598;-75
2021/09/28 10:21:42;;;;;;;6.50;5.90;;;24.60;93.00;;;;;;6247343;28;20197;-76
2021/09/28 10:24:44;;;;;;;7.97;5.53;;;24.10;93.80;;;;;;6248040;28;20204;-75
2021/09/28 10:27:55;;;;;;;6.37;5.53;;;24.00;95.30;;;;;;6230866;28;20196;-75
2021/09/28 10:30:58;;;;;;;6.47;5.67;;;24.30;95.20;;;;;;6243220;28;20234;-75
2021/09/28 10:34:01;;;;;;;6.70;5.57;;;24.70;94.20;;;;;;6230813;28;20330;-75
2021/09/28 10:37:03;;;;;;;5.87;5.27;;;25.00;93.50;;;;;;6248320;28;20216;-75
2021/09/28 10:40:06;;;;;;;6.22;5.63;;;25.30;93.20;;;;;;6247468;28;20196;-75
2021/09/28 10:43:24;;;;;;;6.37;5.10;;;25.50;93.10;;;;;;6247025;28;20189;-74
2021/09/28 10:46:39;;;;;;;5.43;4.93;;;25.70;92.50;;;;;;6230410;28;20204;-75
2021/09/28 10:49:42;;;;;;;6.05;5.30;;;25.90;91.90;;;;;;6247004;28;20207;-75
2021/09/28 10:52:45;;;;;;;5.68;5.10;;;25.50;91.00;;;;;;6246930;28;20265;-74
2021/09/28 10:56:01;;;;;;;7.22;5.38;;;25.40;92.10;;;;;;6248832;28;20188;-75
2021/09/28 10:59:03;;;;;;;5.35;4.85;;;25.50;91.40;;;;;;6248391;28;20294;-75
2021/09/28 11:02:09;;;;;;;5.95;5.32;;;25.80;91.40;;;;;;6247874;28;20596;-75
2021/09/28 11:05:34;;;;;;;5.30;4.80;;;26.10;90.70;;;;;;6247594;28;20689;-75
2021/09/28 11:08:38;;;;;;;6.18;5.57;;;25.80;88.90;;;;;;6246640;28;20184;-74
2021/09/28 11:11:40;;;;;;;6.13;5.53;;;25.20;90.60;;;;;;6230248;28;20291;-74
2021/09/28 11:14:43;;;;;;;6.00;5.50;;;25.00;92.00;;;;;;6246246;28;20196;-74
2021/09/28 11:17:45;;;;;;;5.43;4.93;;;25.30;91.40;;;;;;6247429;28;20215;-74
2021/09/28 11:20:47;;;;;;;5.32;4.75;;;25.60;91.80;;;;;;6247366;28;20188;-75
2021/09/28 11:23:55;;;;;;;5.47;4.30;;;25.80;90.50;;;;;;6229893;28;20221;-74
2021/09/28 11:27:09;;;;;;;6.03;4.47;;;25.80;88.20;;;;;;6246176;28;20729;-75
2021/09/28 11:30:14;;;;;;;4.85;4.25;;;25.70;88.60;;;;;;6247408;28;20188;-74
2021/09/28 11:33:17;;;;;;;5.57;4.28;;;25.90;89.60;;;;;;6247583;28;20668;-74
2021/09/28 11:36:20;;;;;;;6.05;3.53;;;26.10;88.40;;;;;;6246920;28;20715;-74
2021/09/28 11:39:22;;;;;;;4.05;3.65;;;26.20;85.90;;;;;;6245297;28;20192;-76
2021/09/28 11:42:31;;;;;;;5.78;3.63;;;26.30;85.70;;;;;;6245781;28;20207;-74
2021/09/28 11:45:34;;;;;;;4.60;4.13;;;26.10;85.50;;;;;;6245580;28;20265;-74
2021/09/28 11:48:42;;;;;;;3.78;3.45;;;26.00;85.00;;;;;;6229561;28;20206;-74
2021/09/28 11:51:44;;;;;;;4.18;3.78;;;26.30;85.80;;;;;;6245252;28;20189;-74
2021/09/28 11:54:49;;;;;;;3.80;3.22;;;26.60;84.10;;;;;;6246582;28;20267;-74
2021/09/28 11:57:52;;;;;;;5.22;2.92;;;26.90;81.00;;;;;;6245083;28;20783;-74
2021/09/28 12:00:57;;;;;;;3.53;3.22;;;26.90;79.90;;;;;;6246559;28;20216;-75
2021/09/28 12:11:09;;;;;;;4.32;3.83;;;27.40;79.90;;;;;;6146504;29;20215;-75
2021/09/28 12:14:13;;;;;;;3.38;3.10;;;27.90;78.30;;;;;;6146499;29;20564;-74
2021/09/28 12:17:26;;;;;;;6.47;3.70;;;28.30;77.10;;;;;;6146454;29;20254;-75
2021/09/28 12:20:28;;;;;;;4.50;3.50;;;28.30;75.20;;;;;;6122195;29;20227;-76
2021/09/28 12:23:30;;;;;;;3.22;2.92;;;28.20;75.60;;;;;;6143974;29;20207;-75
2021/09/28 12:26:35;;;;;;;3.25;2.78;;;27.80;74.80;;;;;;6146166;29;20646;-75
2021/09/28 12:29:49;;;;;;;4.05;2.75;;;27.80;75.00;;;;;;6155194;28;20194;-75
2021/09/28 12:32:52;;;;;;;2.92;2.70;;;28.00;74.80;;;;;;6156385;28;20199;-75
2021/09/28 12:35:56;;;;;;;3.05;2.75;;;28.10;71.70;;;;;;6145884;29;20222;-75
2021/09/28 12:39:25;;;;;;;3.38;3.03;;;28.20;72.40;;;;;;6145972;29;20293;-75
2021/09/28 12:42:28;;;;;;;3.05;2.85;;;28.50;70.80;;;;;;6145956;29;20281;-75
2021/09/28 12:45:51;;;;;;;3.28;2.70;;;28.60;70.10;;;;;;6145944;29;20199;-75
2021/09/28 12:48:54;;;;;;;4.30;2.92;;;28.90;71.00;;;;;;6245482;28;20350;-75
2021/09/28 12:51:58;;;;;;;3.53;3.00;;;29.30;68.40;;;;;;6244375;28;20202;-74
2021/09/28 12:55:01;;;;;;;4.13;2.80;;;29.20;67.20;;;;;;6245474;28;20215;-75
2021/09/28 12:58:08;;;;;;;3.42;2.80;;;28.60;67.20;;;;;;6245262;28;20290;-74
2021/09/28 13:01:10;;;;;;;2.85;2.65;;;28.00;69.10;;;;;;6245299;28;20239;-75
2021/09/28 13:04:16;;;;;;;3.08;2.88;;;27.50;70.30;;;;;;6245139;28;20350;-74
2021/09/28 13:07:19;;;;;;;2.80;2.60;;;27.70;70.20;;;;;;6245267;28;20192;-75
2021/09/28 13:10:22;;;;;;;2.65;2.45;;;28.30;67.80;;;;;;6244221;28;20727;-75
2021/09/28 13:13:26;;;;;;;3.20;2.95;;;28.80;66.80;;;;;;6244996;28;20675;-74
2021/09/28 13:16:28;;;;;;;2.97;2.72;;;29.10;65.10;;;;;;6245164;28;20192;-74
2021/09/28 13:19:30;;;;;;;3.10;2.80;;;29.70;64.90;;;;;;6243616;28;20263;-75
2021/09/28 13:22:33;;;;;;;2.70;2.50;;;30.30;60.80;;;;;;6227590;28;20484;-75
2021/09/28 13:25:36;;;;;;;3.25;2.60;;;30.80;58.50;;;;;;6244886;28;20196;-75
2021/09/28 13:28:38;;;;;;;3.25;2.95;;;30.60;58.30;;;;;;6244095;28;20650;-74
2021/09/28 13:31:42;;;;;;;4.05;2.50;;;29.80;59.50;;;;;;6245164;28;20223;-74
2021/09/28 13:34:45;;;;;;;2.45;2.25;;;28.80;61.50;;;;;;6227464;28;20659;-75
2021/09/28 13:37:47;;;;;;;3.58;2.47;;;28.20;64.80;;;;;;6244150;28;20208;-74
2021/09/28 13:40:49;;;;;;;4.40;2.55;;;27.80;66.20;;;;;;6244917;28;20180;-74
2021/09/28 13:43:51;;;;;;;3.97;2.88;;;27.50;67.50;;;;;;6227472;28;20196;-74
2021/09/28 13:46:55;;;;;;;2.75;2.55;;;27.20;68.50;;;;;;6244945;28;20198;-74
2021/09/28 13:49:58;;;;;;;2.88;2.50;;;27.00;67.90;;;;;;6227032;28;20397;-74
2021/09/28 13:53:00;;;;;;;2.97;2.67;;;26.60;69.80;;;;;;6244792;28;20538;-74
2021/09/28 13:56:02;;;;;;;3.67;2.63;;;26.30;71.70;;;;;;6227333;28;20188;-75
2021/09/28 13:59:04;;;;;;;3.72;2.90;;;25.90;68.50;;;;;;6243286;28;20204;-74
2021/09/28 14:02:07;;;;;;;3.20;3.00;;;25.80;71.30;;;;;;6234194;28;20225;-75
2021/09/28 14:05:10;;;;;;;3.22;2.92;;;25.70;72.60;;;;;;6233411;28;20224;-74
2021/09/28 14:08:13;;;;;;;3.08;2.75;;;25.20;71.20;;;;;;6249347;28;20195;-75
2021/09/28 14:11:17;;;;;;;3.17;2.88;;;25.20;73.70;;;;;;6248969;28;20188;-75
2021/09/28 14:14:19;;;;;;;3.20;2.88;;;25.30;77.00;;;;;;6248070;28;20200;-74
2021/09/28 14:17:21;;;;;;;5.32;3.00;;;25.40;75.80;;;;;;6246376;28;20211;-75
2021/09/28 14:20:24;;;;;;;2.88;2.50;;;25.40;77.90;;;;;;6249022;28;20184;-74
2021/09/28 14:23:26;;;;;;;3.00;2.70;;;25.50;79.40;;;;;;6247760;28;20204;-76
2021/09/28 14:26:28;;;;;;;3.13;2.83;;;25.40;79.30;;;;;;6248625;28;20188;-74
2021/09/28 14:29:31;;;;;;;3.15;2.90;;;25.20;81.30;;;;;;6248040;28;20297;-74
2021/09/28 14:32:33;;;;;;;3.58;2.85;;;24.90;81.20;;;;;;6247354;28;20180;-74
2021/09/28 14:35:38;;;;;;;3.70;3.00;;;24.70;83.10;;;;;;6248602;28;20215;-75
2021/09/28 14:38:40;;;;;;;3.10;2.90;;;24.50;83.10;;;;;;6248600;28;20204;-74
2021/09/28 14:41:42;;;;;;;3.28;2.70;;;24.30;86.10;;;;;;6231232;28;20196;-75
2021/09/28 14:44:44;;;;;;;3.33;3.03;;;24.10;87.80;;;;;;6247068;28;20207;-74
2021/09/28 14:47:47;;;;;;;4.03;2.80;;;23.80;89.70;;;;;;6247106;28;20199;-74
2021/09/28 14:50:49;;;;;;;3.37;2.93;;;23.60;90.70;;;;;;6230686;28;20194;-75
2021/09/28 14:53:52;;;;;;;2.70;2.50;;;23.40;91.40;;;;;;6248179;28;20196;-74
2021/09/28 14:56:54;;;;;;;3.07;2.87;;;23.20;92.20;;;;;;6248061;28;20202;-74
2021/09/28 14:59:56;;;;;;;3.37;3.07;;;23.20;92.80;;;;;;6250602;28;20219;-74
2021/09/28 15:02:58;;;;;;;4.57;3.07;;;23.20;93.20;;;;;;6248046;28;20226;-75
2021/09/28 15:06:01;;;;;;;3.37;3.07;;;23.20;93.60;;;;;;6248096;28;20652;-74
2021/09/28 15:09:05;;;;;;;3.77;3.47;;;23.10;93.90;;;;;;6247721;28;20200;-74
2021/09/28 15:12:09;;;;;;;5.43;4.67;;;23.10;94.00;;;;;;6246108;28;20652;-74
2021/09/28 15:15:11;;;;;;;6.03;4.27;;;22.90;92.80;;;;;;6247141;28;20196;-74
2021/09/28 15:18:14;;;;;;;4.87;4.20;;;22.70;92.10;;;;;;6247472;28;20231;-74
2021/09/28 15:21:16;;;;;;;4.70;4.13;;;22.60;92.40;;;;;;6229886;28;20192;-73
2021/09/28 15:24:20;;;;;;;4.13;3.80;;;22.60;92.40;;;;;;6247311;28;20267;-74
2021/09/28 15:27:22;;;;;;;4.03;3.57;;;22.60;92.70;;;;;;6246468;28;20190;-74
2021/09/28 15:30:24;;;;;;;4.27;3.87;;;22.50;92.90;;;;;;6229737;28;20273;-74
2021/09/28 15:33:27;;;;;;;3.93;3.53;;;22.40;93.00;;;;;;6229762;28;20191;-75
2021/09/28 15:36:31;;;;;;;4.53;3.93;;;22.20;94.30;;;;;;6246099;28;20196;-74
2021/09/28 15:39:34;;;;;;;4.23;3.63;;;22.00;95.30;;;;;;6229430;28;20306;-74
2021/09/28 15:42:37;;;;;;;4.40;3.73;;;21.90;96.10;;;;;;6245880;28;20196;-74
2021/09/28 15:45:39;;;;;;;4.87;3.87;;;21.70;96.80;;;;;;6246888;28;20187;-74
2021/09/28 15:48:41;;;;;;;4.57;3.53;;;21.60;97.50;;;;;;6245567;28;20586;-74
2021/09/28 15:51:44;;;;;;;5.13;3.90;;;21.50;98.20;;;;;;6245833;28;20188;-75
2021/09/28 15:54:47;;;;;;;3.20;3.00;;;21.30;98.70;;;;;;6246681;28;20269;-74
2021/09/28 15:57:49;;;;;;;5.60;4.00;;;21.20;99.30;;;;;;6246494;28;20215;-75
2021/09/28 16:00:51;;;;;;;3.67;3.37;;;21.10;99.90;;;;;;6246380;28;20219;-74